Terminal Aerodrome Forecast
Issued by NWS

Home | Current Version | Previous Version | Text Only | Print | Product List | Glossary On
Versions: 1 2 3 4 5 6 7 8 9 10 11 12 13 14 15 16 17 18 19 20 21 22 23 24
655
FTUS45 KLKN 272320
TAFELY
TAF
KELY 272320Z 2800/2824 25010G18KT P6SM FEW110
     FM280300 18007KT P6SM SKC
     FM282000 28008G16KT P6SM FEW110 SCT250=

USA.gov is the U.S. government's official web portal to all federal, state and local government web resources and services.